Air Navigation Services of Czech Republic
Airport: LKLN Updated:  15.09.2019 21:55:26  UTC
 METAR LKLN 15.09. 22:00 ...
METAR LKLN 152200Z AUTO VRB01KT CAVOK 15/13 Q1021=